createdAt,value
2019-06-01T00:00:20.914Z,62.56
2019-06-01T00:02:56.055Z,62.41
2019-06-01T00:05:23.546Z,63.14
2019-06-01T00:07:53.995Z,63.15
2019-06-01T00:10:24.559Z,63.01
2019-06-01T00:12:55.189Z,64.54
2019-06-01T00:15:25.647Z,63.08
2019-06-01T00:17:56.146Z,63.08
2019-06-01T00:20:26.762Z,63.55
2019-06-01T00:22:57.407Z,64.70
2019-06-01T00:25:27.863Z,64.69
2019-06-01T00:27:58.320Z,64.54
2019-06-01T00:30:28.821Z,64.77
2019-06-01T00:32:59.195Z,65.78
2019-06-01T00:35:29.665Z,65.30
2019-06-01T00:38:00.443Z,66.28
2019-06-01T00:40:30.863Z,66.28
2019-06-01T00:43:01.250Z,65.79
2019-06-01T00:45:31.651Z,65.71
2019-06-01T00:48:02.014Z,65.71
2019-06-01T00:50:32.407Z,65.69
2019-06-01T00:53:02.814Z,65.86
2019-06-01T00:55:33.473Z,66.61
2019-06-01T00:58:03.833Z,69.79
2019-06-01T01:00:43.183Z,67.94
2019-06-01T01:03:06.897Z,69.09
2019-06-01T01:05:37.290Z,68.81
2019-06-01T01:08:07.743Z,68.31
2019-06-01T01:10:38.113Z,71.19
2019-06-01T01:13:10.165Z,68.82
2019-06-01T01:15:40.599Z,69.17
2019-06-01T01:18:11.304Z,68.80
2019-06-01T01:20:41.795Z,70.33
2019-06-01T01:23:12.240Z,72.19
2019-06-01T01:25:42.694Z,71.06
2019-06-01T01:28:13.070Z,70.31
2019-06-01T01:30:59.990Z,70.83
2019-06-01T01:33:15.707Z,73.49
2019-06-01T01:35:47.531Z,72.04
2019-06-01T01:38:18.050Z,71.26
2019-06-01T01:40:48.506Z,70.86
2019-06-01T01:43:18.890Z,70.58
2019-06-01T01:45:50.554Z,71.17
2019-06-01T01:48:21.252Z,70.60
2019-06-01T01:50:52.369Z,71.05
2019-06-01T01:53:23.462Z,72.14
2019-06-01T01:55:55.152Z,72.71
2019-06-01T01:58:25.738Z,72.44
2019-06-01T02:00:56.797Z,72.50
2019-06-01T02:03:28.302Z,71.86
2019-06-01T02:05:59.247Z,72.38
2019-06-01T02:08:29.672Z,71.85
2019-06-01T02:11:00.092Z,71.81
2019-06-01T02:13:30.486Z,72.84
2019-06-01T02:16:02.479Z,74.48
2019-06-01T02:18:33.138Z,73.29
2019-06-01T02:21:03.548Z,72.63
2019-06-01T02:23:34.006Z,72.54
2019-06-01T02:26:04.511Z,74.67
2019-06-01T02:28:34.916Z,75.05
2019-06-01T02:31:05.346Z,73.60
2019-06-01T02:33:35.769Z,74.43
2019-06-01T02:36:06.194Z,76.10
2019-06-01T02:38:36.643Z,75.63
2019-06-01T02:41:07.048Z,76.64
2019-06-01T02:43:37.610Z,75.44
2019-06-01T02:46:08.017Z,75.45
2019-06-01T02:48:38.404Z,76.89
2019-06-01T02:51:08.801Z,75.93
2019-06-01T02:53:39.286Z,77.27
2019-06-01T02:56:11.017Z,76.01
2019-06-01T02:58:41.525Z,75.61
2019-06-01T03:01:22.373Z,75.91
2019-06-01T03:03:52.986Z,75.96
2019-06-01T03:06:23.660Z,74.75
2019-06-01T03:08:54.101Z,74.93
2019-06-01T03:11:25.514Z,75.27
2019-06-01T03:13:56.167Z,76.39
2019-06-01T03:16:29.564Z,76.57
2019-06-01T03:19:01.944Z,76.79
2019-06-01T03:21:33.251Z,76.47
2019-06-01T03:24:09.733Z,75.35
2019-06-01T03:26:42.921Z,74.86
2019-06-01T03:29:17.823Z,76.09
2019-06-01T03:31:48.447Z,75.06
2019-06-01T03:34:18.914Z,74.86
2019-06-01T03:36:49.452Z,74.87
2019-06-01T03:39:19.836Z,74.10
2019-06-01T03:41:50.323Z,74.04
2019-06-01T03:44:20.763Z,73.41
2019-06-01T03:46:51.420Z,73.04
2019-06-01T03:49:21.910Z,73.56
2019-06-01T03:51:52.309Z,74.10
2019-06-01T03:54:22.764Z,74.84
2019-06-01T03:56:53.185Z,74.66
2019-06-01T03:59:23.557Z,74.15
2019-06-01T04:01:53.998Z,73.66
2019-06-01T04:04:24.540Z,73.41
2019-06-01T04:06:55.763Z,72.82
2019-06-01T04:09:26.561Z,72.16
2019-06-01T04:11:56.972Z,71.65
2019-06-01T04:14:28.402Z,70.74
2019-06-01T04:16:58.831Z,70.17
2019-06-01T04:19:30.284Z,70.08
2019-06-01T04:22:01.825Z,69.51
2019-06-01T04:24:32.399Z,69.68
2019-06-01T04:27:04.482Z,69.68
2019-06-01T04:29:34.830Z,70.04
2019-06-01T04:32:06.445Z,70.58
2019-06-01T04:34:36.872Z,69.93
2019-06-01T04:37:07.287Z,69.21
2019-06-01T04:39:37.732Z,69.50
2019-06-01T04:42:08.158Z,69.42
2019-06-01T04:44:38.556Z,69.25
2019-06-01T04:47:09.583Z,68.64
2019-06-01T04:49:41.114Z,68.64
2019-06-01T04:52:12.235Z,68.46
2019-06-01T04:54:43.815Z,67.85
2019-06-01T04:57:15.111Z,67.87
2019-06-01T04:59:45.572Z,67.56
2019-06-01T05:02:15.976Z,67.18
2019-06-01T05:04:46.339Z,66.41
2019-06-01T05:07:16.755Z,65.84
2019-06-01T05:09:47.146Z,65.02
2019-06-01T05:12:17.561Z,65.07
2019-06-01T05:14:47.943Z,65.24
2019-06-01T05:17:18.430Z,64.85
2019-06-01T05:19:48.961Z,63.98
2019-06-01T05:22:19.437Z,63.99
2019-06-01T05:24:49.870Z,63.80
2019-06-01T05:27:20.280Z,62.93
2019-06-01T05:29:50.959Z,63.88
2019-06-01T05:32:21.453Z,63.19
2019-06-01T05:34:51.823Z,62.16
2019-06-01T05:37:22.414Z,62.56
2019-06-01T05:39:52.883Z,62.26
2019-06-01T05:42:23.308Z,61.54
2019-06-01T05:44:53.698Z,62.12
2019-06-01T05:47:24.136Z,62.65
2019-06-01T05:49:54.483Z,62.29
2019-06-01T05:52:24.884Z,62.45
2019-06-01T05:54:55.334Z,62.22
2019-06-01T05:57:25.787Z,61.61
2019-06-01T05:59:56.181Z,61.93
2019-06-01T06:02:26.593Z,61.62
2019-06-01T06:04:57.003Z,61.16
2019-06-01T06:07:27.855Z,61.93
2019-06-01T06:09:58.208Z,62.19
2019-06-01T06:12:28.615Z,61.86
2019-06-01T06:14:59.140Z,62.32
2019-06-01T06:17:29.535Z,62.22
2019-06-01T06:20:00.098Z,60.77
2019-06-01T06:22:30.503Z,59.08
2019-06-01T06:25:01.028Z,59.41
2019-06-01T06:27:31.559Z,58.65
2019-06-01T06:30:01.951Z,56.98
2019-06-01T06:32:32.350Z,55.96
2019-06-01T06:35:02.763Z,55.56
2019-06-01T06:37:33.315Z,54.86
2019-06-01T06:40:05.403Z,56.71
2019-06-01T06:42:35.789Z,56.35
2019-06-01T06:45:06.800Z,56.61
2019-06-01T06:47:37.205Z,56.25
2019-06-01T06:50:08.178Z,55.00
2019-06-01T06:52:38.710Z,55.73
2019-06-01T06:55:09.216Z,54.89
2019-06-01T06:57:41.485Z,55.34
2019-06-01T07:00:12.117Z,55.78
2019-06-01T07:02:42.525Z,55.51
2019-06-01T07:05:13.138Z,55.09
2019-06-01T07:07:44.116Z,54.29
2019-06-01T07:10:14.483Z,52.82
2019-06-01T07:12:44.916Z,51.97
2019-06-01T07:15:15.371Z,52.31
2019-06-01T07:17:45.763Z,50.87
2019-06-01T07:20:17.648Z,51.29
2019-06-01T07:22:48.084Z,49.74
2019-06-01T07:25:19.592Z,49.35
2019-06-01T07:27:50.056Z,49.54
2019-06-01T07:30:20.500Z,49.90
2019-06-01T07:32:50.900Z,51.06
2019-06-01T07:35:22.374Z,50.39
2019-06-01T07:37:54.080Z,49.50
2019-06-01T07:40:24.888Z,50.42
2019-06-01T07:42:55.379Z,50.30
2019-06-01T07:45:26.913Z,50.10
2019-06-01T07:47:57.549Z,49.63
2019-06-01T07:50:28.083Z,49.55
2019-06-01T07:52:58.450Z,48.80
2019-06-01T07:55:29.731Z,49.18
2019-06-01T07:58:00.330Z,48.96
2019-06-01T08:00:30.722Z,48.91
2019-06-01T08:03:01.185Z,47.15
2019-06-01T08:05:32.212Z,47.64
2019-06-01T08:08:02.697Z,47.88
2019-06-01T08:10:33.063Z,47.10
2019-06-01T08:13:03.463Z,46.93
2019-06-01T08:15:33.892Z,46.97
2019-06-01T08:18:04.273Z,47.77
2019-06-01T08:20:35.100Z,47.13
2019-06-01T08:23:05.497Z,47.01
2019-06-01T08:25:35.952Z,46.65
2019-06-01T08:28:06.454Z,46.48
2019-06-01T08:30:36.859Z,46.41
2019-06-01T08:33:07.385Z,45.44
2019-06-01T08:35:37.754Z,45.31
2019-06-01T08:38:08.153Z,46.07
2019-06-01T08:40:40.618Z,46.23
2019-06-01T08:43:10.834Z,45.99
2019-06-01T08:45:41.345Z,46.03
2019-06-01T08:48:11.681Z,47.80
2019-06-01T08:50:45.862Z,48.68
2019-06-01T08:53:14.213Z,49.90
2019-06-01T08:55:44.588Z,49.12
2019-06-01T08:58:15.210Z,48.98
2019-06-01T09:00:45.677Z,48.44
2019-06-01T09:03:16.163Z,46.86
2019-06-01T09:05:46.789Z,46.84
2019-06-01T09:08:17.261Z,45.94
2019-06-01T09:10:47.982Z,46.25
2019-06-01T09:13:18.399Z,45.99
2019-06-01T09:15:48.847Z,46.22
2019-06-01T09:18:19.269Z,45.84
2019-06-01T09:20:49.675Z,45.53
2019-06-01T09:23:20.170Z,44.58
2019-06-01T09:25:50.556Z,44.73
2019-06-01T09:28:21.457Z,43.23
2019-06-01T09:30:51.899Z,43.55
2019-06-01T09:33:22.304Z,44.24
2019-06-01T09:35:56.179Z,45.08
2019-06-01T09:38:24.865Z,45.45
2019-06-01T09:40:55.323Z,45.99
2019-06-01T09:43:26.519Z,45.58
2019-06-01T09:45:57.027Z,44.99
2019-06-01T09:48:27.581Z,45.65
2019-06-01T09:50:57.955Z,45.17
2019-06-01T09:53:29.385Z,45.53
2019-06-01T09:56:00.452Z,45.21
2019-06-01T09:58:32.223Z,43.59
2019-06-01T10:01:02.784Z,44.31
2019-06-01T10:03:34.468Z,43.36
2019-06-01T10:06:05.035Z,43.42
2019-06-01T10:08:36.135Z,44.02
2019-06-01T10:11:06.727Z,43.31
2019-06-01T10:13:38.455Z,42.90
2019-06-01T10:16:08.895Z,42.44
2019-06-01T10:18:39.591Z,43.09
2019-06-01T10:21:10.372Z,43.28
2019-06-01T10:23:40.930Z,43.95
2019-06-01T10:26:11.366Z,44.01
2019-06-01T10:28:42.013Z,43.38
2019-06-01T10:31:12.569Z,43.08
2019-06-01T10:33:43.348Z,41.92
2019-06-01T10:36:20.683Z,41.02
2019-06-01T10:38:46.090Z,42.23
2019-06-01T10:41:16.519Z,42.23
2019-06-01T10:43:46.938Z,41.52
2019-06-01T10:46:17.392Z,42.10
2019-06-01T10:48:47.902Z,41.36
2019-06-01T10:51:18.436Z,39.95
2019-06-01T10:53:48.966Z,40.07
2019-06-01T10:56:21.159Z,41.18
2019-06-01T10:59:00.002Z,39.90
2019-06-01T11:01:23.822Z,40.21
2019-06-01T11:03:54.299Z,39.45
2019-06-01T11:06:36.576Z,39.73
2019-06-01T11:08:57.077Z,39.89
2019-06-01T11:11:27.492Z,40.06
2019-06-01T11:13:57.919Z,39.84
2019-06-01T11:16:28.357Z,39.37
2019-06-01T11:18:58.924Z,39.62
2019-06-01T11:21:29.350Z,38.92
2019-06-01T11:23:59.835Z,39.16
2019-06-01T11:26:30.653Z,38.89
2019-06-01T11:29:01.046Z,38.73
2019-06-01T11:31:31.414Z,38.67
2019-06-01T11:34:01.841Z,37.35
2019-06-01T11:36:34.246Z,37.96
2019-06-01T11:39:06.484Z,37.21
2019-06-01T11:41:37.026Z,36.90
2019-06-01T11:44:07.416Z,37.38
2019-06-01T11:46:38.862Z,37.90
2019-06-01T11:49:10.982Z,38.04
2019-06-01T11:51:41.551Z,37.16
2019-06-01T11:54:11.935Z,37.63
2019-06-01T11:56:43.326Z,37.39
2019-06-01T11:59:13.968Z,37.21
2019-06-01T12:01:44.356Z,37.71
2019-06-01T12:04:16.191Z,38.16
2019-06-01T12:06:46.618Z,38.10
2019-06-01T12:09:17.182Z,38.12
2019-06-01T12:11:47.530Z,37.65
2019-06-01T12:14:21.442Z,36.59
2019-06-01T12:16:51.882Z,36.13
2019-06-01T12:19:22.308Z,35.60
2019-06-01T12:21:52.709Z,35.84
2019-06-01T12:24:25.667Z,34.90
2019-06-01T12:26:55.247Z,34.81
2019-06-01T12:29:25.646Z,35.21
2019-06-01T12:31:56.046Z,34.20
2019-06-01T12:34:26.508Z,34.34
2019-06-01T12:36:56.866Z,34.49
2019-06-01T12:39:27.271Z,34.10
2019-06-01T12:41:59.287Z,34.01
2019-06-01T12:44:29.663Z,35.21
2019-06-01T12:47:00.032Z,35.71
2019-06-01T12:49:30.483Z,35.92
2019-06-01T12:52:00.865Z,35.92
2019-06-01T12:54:31.291Z,35.91
2019-06-01T12:57:01.659Z,36.11
2019-06-01T12:59:32.322Z,35.86
2019-06-01T13:02:02.700Z,34.91
2019-06-01T13:04:33.264Z,35.40
2019-06-01T13:07:04.270Z,34.73
2019-06-01T13:09:34.664Z,33.25
2019-06-01T13:12:05.220Z,34.20
2019-06-01T13:14:35.938Z,34.41
2019-06-01T13:17:08.399Z,34.14
2019-06-01T13:19:38.789Z,34.40
2019-06-01T13:22:11.763Z,34.75
2019-06-01T13:24:43.550Z,36.07
2019-06-01T13:27:14.182Z,35.35
2019-06-01T13:29:45.709Z,34.57
2019-06-01T13:32:16.224Z,34.64
2019-06-01T13:34:47.179Z,34.18
2019-06-01T13:37:17.713Z,33.82
2019-06-01T13:39:54.409Z,32.85
2019-06-01T13:42:20.309Z,33.62
2019-06-01T13:44:51.610Z,33.99
2019-06-01T13:47:22.125Z,33.30
2019-06-01T13:49:54.022Z,33.59
2019-06-01T13:52:24.576Z,32.52
2019-06-01T13:54:55.067Z,32.44
2019-06-01T13:57:25.536Z,33.28
2019-06-01T13:59:56.009Z,33.69
2019-06-01T14:02:27.389Z,32.63
2019-06-01T14:04:57.785Z,33.43
2019-06-01T14:07:28.199Z,33.96
2019-06-01T14:09:58.596Z,33.52
2019-06-01T14:12:28.988Z,33.38
2019-06-01T14:14:59.483Z,33.48
2019-06-01T14:17:29.891Z,32.92
2019-06-01T14:20:00.300Z,33.76
2019-06-01T14:22:30.791Z,33.40
2019-06-01T14:25:12.289Z,32.63
2019-06-01T14:27:33.266Z,32.31
2019-06-01T14:30:04.477Z,32.89
2019-06-01T14:32:34.853Z,33.23
2019-06-01T14:35:07.347Z,32.29
2019-06-01T14:37:37.780Z,31.56
2019-06-01T14:40:08.439Z,32.52
2019-06-01T14:42:39.185Z,31.36
2019-06-01T14:45:09.706Z,30.74
2019-06-01T14:47:40.146Z,30.05
2019-06-01T14:50:10.547Z,28.33
2019-06-01T14:52:41.501Z,28.92
2019-06-01T14:55:12.069Z,28.88
2019-06-01T14:57:42.440Z,29.07
2019-06-01T15:00:15.143Z,29.66
2019-06-01T15:02:45.501Z,29.84
2019-06-01T15:05:15.902Z,30.16
2019-06-01T15:07:46.287Z,29.42
2019-06-01T15:10:16.765Z,30.12
2019-06-01T15:12:51.448Z,29.73
2019-06-01T15:15:19.299Z,29.99
2019-06-01T15:17:49.670Z,32.01
2019-06-01T15:20:20.223Z,32.41
2019-06-01T15:22:50.671Z,30.97
2019-06-01T15:25:21.133Z,31.60
2019-06-01T15:27:52.648Z,31.73
2019-06-01T15:30:23.263Z,31.17
2019-06-01T15:32:54.072Z,30.30
2019-06-01T15:35:24.601Z,29.22
2019-06-01T15:37:59.823Z,27.67
2019-06-01T15:40:27.143Z,25.85
2019-06-01T15:42:57.496Z,27.07
2019-06-01T15:45:27.897Z,28.16
2019-06-01T15:47:59.693Z,29.08
2019-06-01T15:50:30.675Z,29.46
2019-06-01T15:53:01.369Z,28.55
2019-06-01T15:55:32.222Z,28.80
2019-06-01T15:58:03.174Z,27.52
2019-06-01T16:00:33.673Z,27.25
2019-06-01T16:03:04.295Z,29.08
2019-06-01T16:05:34.686Z,29.70
2019-06-01T16:08:05.073Z,29.87
2019-06-01T16:10:35.459Z,30.99
2019-06-01T16:13:05.988Z,31.66
2019-06-01T16:15:36.401Z,32.50
2019-06-01T16:18:06.785Z,33.00
2019-06-01T16:20:37.190Z,32.78
2019-06-01T16:23:07.647Z,33.49
2019-06-01T16:25:38.108Z,33.75
2019-06-01T16:28:08.550Z,34.11
2019-06-01T16:30:39.568Z,34.58
2019-06-01T16:33:09.950Z,35.14
2019-06-01T16:35:40.365Z,35.62
2019-06-01T16:38:10.823Z,35.57
2019-06-01T16:40:42.296Z,35.70
2019-06-01T16:43:12.661Z,35.87
2019-06-01T16:45:43.072Z,36.19
2019-06-01T16:48:13.528Z,36.33
2019-06-01T16:50:44.003Z,37.20
2019-06-01T16:53:14.414Z,37.33
2019-06-01T16:55:45.478Z,38.30
2019-06-01T16:58:15.850Z,38.42
2019-06-01T17:00:46.291Z,38.44
2019-06-01T17:03:16.817Z,38.59
2019-06-01T17:05:47.573Z,38.64
2019-06-01T17:08:18.124Z,39.47
2019-06-01T17:10:49.360Z,40.22
2019-06-01T17:13:19.744Z,40.00
2019-06-01T17:15:50.151Z,39.86
2019-06-01T17:18:20.931Z,39.94
2019-06-01T17:20:54.117Z,40.00
2019-06-01T17:23:27.995Z,39.78
2019-06-01T17:25:58.250Z,39.83
2019-06-01T17:28:28.857Z,39.82
2019-06-01T17:31:00.077Z,40.75
2019-06-01T17:33:30.726Z,40.34
2019-06-01T17:36:01.192Z,40.87
2019-06-01T17:38:31.945Z,40.71
2019-06-01T17:41:02.393Z,40.88
2019-06-01T17:43:32.766Z,41.87
2019-06-01T17:46:03.165Z,41.89
2019-06-01T17:48:33.583Z,41.83
2019-06-01T17:51:04.538Z,42.17
2019-06-01T17:53:34.896Z,42.20
2019-06-01T17:56:06.068Z,42.83
2019-06-01T17:58:36.654Z,42.52
2019-06-01T18:01:08.121Z,42.84
2019-06-01T18:03:38.607Z,42.99
2019-06-01T18:06:09.927Z,43.35
2019-06-01T18:08:40.414Z,43.77
2019-06-01T18:11:12.113Z,43.54
2019-06-01T18:13:42.644Z,43.63
2019-06-01T18:16:13.261Z,43.69
2019-06-01T18:18:43.599Z,43.91
2019-06-01T18:21:14.087Z,43.96
2019-06-01T18:23:44.510Z,43.91
2019-06-01T18:26:16.649Z,44.67
2019-06-01T18:28:47.011Z,44.32
2019-06-01T18:31:17.434Z,44.30
2019-06-01T18:33:47.843Z,44.31
2019-06-01T18:36:18.268Z,44.56
2019-06-01T18:38:48.611Z,44.96
2019-06-01T18:41:20.179Z,45.02
2019-06-01T18:43:50.772Z,45.54
2019-06-01T18:46:21.232Z,45.35
2019-06-01T18:48:51.611Z,45.22
2019-06-01T18:51:22.021Z,45.16
2019-06-01T18:53:52.468Z,45.66
2019-06-01T18:56:22.960Z,46.07
2019-06-01T18:58:53.314Z,46.04
2019-06-01T19:01:23.907Z,46.27
2019-06-01T19:03:54.316Z,46.17
2019-06-01T19:06:24.721Z,46.35
2019-06-01T19:08:55.833Z,46.58
2019-06-01T19:11:35.450Z,46.76
2019-06-01T19:13:58.313Z,47.32
2019-06-01T19:16:28.721Z,47.32
2019-06-01T19:18:59.088Z,47.21
2019-06-01T19:21:29.519Z,47.78
2019-06-01T19:24:00.432Z,48.18
2019-06-01T19:26:30.846Z,48.53
2019-06-01T19:29:01.212Z,48.43
2019-06-01T19:31:31.609Z,48.77
2019-06-01T19:34:02.100Z,49.13
2019-06-01T19:36:32.787Z,48.89
2019-06-01T19:39:04.939Z,49.92
2019-06-01T19:41:44.200Z,49.59
2019-06-01T19:44:07.459Z,49.42
2019-06-01T19:46:38.445Z,50.12
2019-06-01T19:49:10.657Z,50.27
2019-06-01T19:51:40.915Z,50.75
2019-06-01T19:54:11.382Z,51.24
2019-06-01T19:56:41.874Z,51.22
2019-06-01T19:59:12.231Z,51.55
2019-06-01T20:01:42.748Z,51.77
2019-06-01T20:04:14.345Z,51.97
2019-06-01T20:06:44.817Z,52.04
2019-06-01T20:09:15.190Z,52.65
2019-06-01T20:12:00.917Z,53.18
2019-06-01T20:14:19.155Z,53.33
2019-06-01T20:16:49.646Z,53.43
2019-06-01T20:19:20.302Z,54.10
2019-06-01T20:21:50.688Z,54.85
2019-06-01T20:24:21.431Z,55.43
2019-06-01T20:26:51.870Z,55.69
2019-06-01T20:29:22.247Z,56.09
2019-06-01T20:31:52.676Z,56.40
2019-06-01T20:34:22.913Z,56.17
2019-06-01T20:36:53.394Z,55.88
2019-06-01T20:39:23.791Z,56.08
2019-06-01T20:41:54.200Z,56.06
2019-06-01T20:44:24.557Z,56.19
2019-06-01T20:46:55.047Z,56.37
2019-06-01T20:49:25.409Z,56.99
2019-06-01T20:51:55.883Z,56.99
2019-06-01T20:54:26.258Z,57.08
2019-06-01T20:56:56.736Z,57.22
2019-06-01T20:59:27.133Z,57.49
2019-06-01T21:01:57.693Z,57.72
2019-06-01T21:04:28.068Z,58.31
2019-06-01T21:06:58.624Z,59.70
2019-06-01T21:09:29.059Z,59.70
2019-06-01T21:11:59.556Z,59.83
2019-06-01T21:14:29.911Z,60.28
2019-06-01T21:17:00.332Z,59.80
2019-06-01T21:19:30.670Z,59.80
2019-06-01T21:22:01.154Z,59.99
2019-06-01T21:24:31.562Z,60.05
2019-06-01T21:27:02.033Z,60.24
2019-06-01T21:29:32.565Z,60.49
2019-06-01T21:32:02.980Z,60.55
2019-06-01T21:34:33.459Z,60.65
2019-06-01T21:37:03.942Z,60.79
2019-06-01T21:39:34.337Z,61.19
2019-06-01T21:42:04.845Z,61.60
2019-06-01T21:44:35.843Z,61.94
2019-06-01T21:47:06.544Z,62.23
2019-06-01T21:49:37.288Z,62.65
2019-06-01T21:52:07.715Z,62.94
2019-06-01T21:54:38.540Z,63.19
2019-06-01T21:57:09.713Z,63.06
2019-06-01T21:59:40.498Z,62.93
2019-06-01T22:02:11.112Z,62.89
2019-06-01T22:04:41.565Z,63.06
2019-06-01T22:07:11.984Z,63.02
2019-06-01T22:09:43.457Z,63.16
2019-06-01T22:12:13.907Z,63.63
2019-06-01T22:14:44.526Z,63.97
2019-06-01T22:17:15.272Z,64.36
2019-06-01T22:19:45.701Z,64.64
2019-06-01T22:22:17.511Z,64.88
2019-06-01T22:24:49.542Z,65.11
2019-06-01T22:27:20.144Z,65.21
2019-06-01T22:29:50.559Z,65.18
2019-06-01T22:32:25.640Z,65.29
2019-06-01T22:34:53.055Z,65.20
2019-06-01T22:37:23.785Z,65.17
2019-06-01T22:39:54.227Z,65.17
2019-06-01T22:42:24.627Z,65.25
2019-06-01T22:44:55.020Z,65.61
2019-06-01T22:47:26.504Z,66.06
2019-06-01T22:49:56.984Z,66.33
2019-06-01T22:52:27.547Z,66.55
2019-06-01T22:54:57.934Z,66.68
2019-06-01T22:57:28.566Z,66.71
2019-06-01T22:59:58.958Z,66.70
2019-06-01T23:02:29.851Z,66.44
2019-06-01T23:05:01.890Z,66.13
2019-06-01T23:07:32.294Z,65.78
2019-06-01T23:10:02.733Z,65.74
2019-06-01T23:12:33.296Z,65.74
2019-06-01T23:15:04.146Z,65.77
2019-06-01T23:17:34.592Z,65.81
2019-06-01T23:20:09.306Z,66.23
2019-06-01T23:22:39.872Z,66.88
2019-06-01T23:25:10.888Z,67.11
2019-06-01T23:27:41.301Z,67.49
2019-06-01T23:30:11.743Z,67.66
2019-06-01T23:32:42.151Z,67.81
2019-06-01T23:35:12.519Z,67.82
2019-06-01T23:37:42.925Z,67.80
2019-06-01T23:40:13.320Z,67.66
2019-06-01T23:42:43.925Z,67.56
2019-06-01T23:45:14.306Z,67.45
2019-06-01T23:47:44.712Z,67.40
2019-06-01T23:50:15.113Z,67.41
2019-06-01T23:52:45.526Z,67.47
2019-06-01T23:55:15.918Z,67.74
2019-06-01T23:57:46.337Z,68.02
